createdAt,value
2023-01-08T00:01:10.125Z,95530.69
2023-01-08T00:03:38.204Z,95520.72
2023-01-08T00:06:07.269Z,95528.38
2023-01-08T00:08:34.336Z,95523.78
2023-01-08T00:11:01.347Z,95518.00
2023-01-08T00:13:28.291Z,95507.97
2023-01-08T00:15:55.084Z,95491.13
2023-01-08T00:18:21.814Z,95491.91
2023-01-08T00:20:48.511Z,95519.53
2023-01-08T00:23:16.612Z,95488.47
2023-01-08T00:25:43.334Z,95520.28
2023-01-08T00:28:10.378Z,95521.44
2023-01-08T00:30:37.995Z,95516.13
2023-01-08T00:33:04.636Z,95518.41
2023-01-08T00:35:31.282Z,95480.06
2023-01-08T00:37:57.878Z,95496.16
2023-01-08T00:40:24.561Z,95513.81
2023-01-08T00:42:51.292Z,95531.03
2023-01-08T00:45:17.974Z,95509.19
2023-01-08T00:47:44.586Z,95504.59
2023-01-08T00:50:11.717Z,95516.09
2023-01-08T00:52:38.966Z,95509.97
2023-01-08T00:55:06.277Z,95508.03
2023-01-08T00:57:34.953Z,95507.97
2023-01-08T01:00:01.909Z,95478.84
2023-01-08T01:02:28.488Z,95505.97
2023-01-08T01:04:55.231Z,95495.59
2023-01-08T01:07:22.052Z,95513.47
2023-01-08T01:09:48.749Z,95518.47
2023-01-08T01:12:15.391Z,95519.63
2023-01-08T01:14:42.234Z,95520.44
2023-01-08T01:17:11.869Z,95521.25
2023-01-08T01:19:38.920Z,95503.63
2023-01-08T01:22:05.769Z,95475.66
2023-01-08T01:24:33.099Z,95509.84
2023-01-08T01:26:59.772Z,95510.22
2023-01-08T01:29:26.940Z,95522.84
2023-01-08T01:31:53.496Z,95515.66
2023-01-08T01:34:20.141Z,95513.00
2023-01-08T01:36:46.759Z,95511.06
2023-01-08T01:39:13.480Z,95494.97
2023-01-08T01:41:45.215Z,95509.50
2023-01-08T01:44:42.151Z,95518.38
2023-01-08T01:47:30.000Z,95491.16
2023-01-08T01:50:05.442Z,95505.72
2023-01-08T01:52:38.402Z,95493.09
2023-01-08T01:55:07.409Z,95496.16
2023-01-08T01:57:34.415Z,95487.72
2023-01-08T02:00:04.567Z,95494.63
2023-01-08T02:02:32.632Z,95476.59
2023-01-08T02:05:01.398Z,95501.47
2023-01-08T02:07:33.977Z,95487.69
2023-01-08T02:10:10.281Z,95493.44
2023-01-08T02:12:47.265Z,95491.53
2023-01-08T02:15:32.432Z,95494.22
2023-01-08T02:18:10.938Z,95497.69
2023-01-08T02:21:03.969Z,95486.53
2023-01-08T02:23:49.644Z,95478.50
2023-01-08T02:26:25.190Z,95452.34
2023-01-08T02:28:58.832Z,95477.69
2023-01-08T02:31:28.545Z,95473.06
2023-01-08T02:33:55.200Z,95483.03
2023-01-08T02:36:40.252Z,95482.69
2023-01-08T02:39:14.672Z,95471.91
2023-01-08T02:41:52.110Z,95466.63
2023-01-08T02:44:42.257Z,95460.44
2023-01-08T02:47:15.788Z,95471.56
2023-01-08T02:49:46.013Z,95471.56
2023-01-08T02:52:15.832Z,95455.09
2023-01-08T02:54:44.553Z,95476.91
2023-01-08T02:57:15.807Z,95468.09
2023-01-08T02:59:46.305Z,95465.00
2023-01-08T03:02:13.389Z,95460.75
2023-01-08T03:04:49.598Z,95465.34
2023-01-08T03:07:16.290Z,95469.09
2023-01-08T03:09:43.195Z,95470.19
2023-01-08T03:12:23.303Z,95477.47
2023-01-08T03:15:23.077Z,95476.75
2023-01-08T03:17:53.909Z,95476.69
2023-01-08T03:20:24.984Z,95466.69
2023-01-08T03:22:55.544Z,95458.28
2023-01-08T03:25:25.176Z,95464.53
2023-01-08T03:27:57.617Z,95451.16
2023-01-08T03:30:25.473Z,95475.31
2023-01-08T03:32:55.794Z,95454.28
2023-01-08T03:35:24.909Z,95473.03
2023-01-08T03:38:07.021Z,95472.22
2023-01-08T03:40:45.459Z,95468.81
2023-01-08T03:43:12.202Z,95465.38
2023-01-08T03:45:45.311Z,95465.31
2023-01-08T03:48:12.196Z,95471.44
2023-01-08T03:50:40.347Z,95458.00
2023-01-08T03:53:08.847Z,95446.88
2023-01-08T03:55:36.052Z,95459.84
2023-01-08T03:58:02.936Z,95469.31
2023-01-08T04:00:29.629Z,95464.25
2023-01-08T04:02:56.265Z,95479.53
2023-01-08T04:05:22.938Z,95461.56
2023-01-08T04:07:49.655Z,95465.06
2023-01-08T04:10:16.498Z,95462.78
2023-01-08T04:12:43.693Z,95446.63
2023-01-08T04:15:10.821Z,95452.44
2023-01-08T04:17:37.392Z,95476.59
2023-01-08T04:20:05.690Z,95470.09
2023-01-08T04:22:32.436Z,95482.28
2023-01-08T04:24:59.099Z,95476.91
2023-01-08T04:27:25.740Z,95477.34
2023-01-08T04:29:52.390Z,95466.22
2023-01-08T04:32:19.939Z,95473.09
2023-01-08T04:34:46.586Z,95483.84
2023-01-08T04:37:13.287Z,95453.94
2023-01-08T04:39:39.930Z,95487.13
2023-01-08T04:42:06.529Z,95481.31
2023-01-08T04:44:33.089Z,95458.66
2023-01-08T04:46:59.693Z,95472.47
2023-01-08T04:49:26.370Z,95456.25
2023-01-08T04:51:52.971Z,95482.25
2023-01-08T04:54:19.675Z,95484.47
2023-01-08T04:56:46.319Z,95480.94
2023-01-08T04:59:12.990Z,95472.47
2023-01-08T05:01:39.747Z,95488.25
2023-01-08T05:04:06.504Z,95482.81
2023-01-08T05:06:33.837Z,95488.53
2023-01-08T05:09:00.664Z,95500.00
2023-01-08T05:11:30.240Z,95473.66
2023-01-08T05:13:57.194Z,95491.63
2023-01-08T05:16:24.089Z,95493.88
2023-01-08T05:18:50.809Z,95473.53
2023-01-08T05:21:18.416Z,95477.41
2023-01-08T05:23:47.907Z,95474.28
2023-01-08T05:26:16.001Z,95493.94
2023-01-08T05:28:43.193Z,95474.03
2023-01-08T05:31:11.690Z,95487.47
2023-01-08T05:33:39.110Z,95478.34
2023-01-08T05:36:08.232Z,95484.97
2023-01-08T05:38:35.120Z,95490.72
2023-01-08T05:41:01.872Z,95470.72
2023-01-08T05:43:29.723Z,95498.19
2023-01-08T05:46:02.636Z,95489.84
2023-01-08T05:48:34.071Z,95494.03
2023-01-08T05:51:01.046Z,95488.56
2023-01-08T05:53:27.734Z,95484.59
2023-01-08T05:55:59.896Z,95486.16
2023-01-08T05:58:27.276Z,95500.19
2023-01-08T06:00:54.710Z,95491.69
2023-01-08T06:03:23.237Z,95484.69
2023-01-08T06:05:49.796Z,95482.69
2023-01-08T06:08:16.549Z,95502.00
2023-01-08T06:10:43.230Z,95469.03
2023-01-08T06:13:10.570Z,95493.69
2023-01-08T06:15:40.574Z,95506.91
2023-01-08T06:18:07.432Z,95490.91
2023-01-08T06:20:34.103Z,95488.13
2023-01-08T06:23:00.800Z,95479.03
2023-01-08T06:25:28.512Z,95499.16
2023-01-08T06:27:55.361Z,95507.69
2023-01-08T06:30:22.066Z,95516.53
2023-01-08T06:32:48.790Z,95504.19
2023-01-08T06:35:15.511Z,95513.66
2023-01-08T06:37:42.327Z,95513.75
2023-01-08T06:40:09.686Z,95532.16
2023-01-08T06:42:36.272Z,95525.31
2023-01-08T06:45:02.969Z,95533.38
2023-01-08T06:47:29.656Z,95535.25
2023-01-08T06:49:56.402Z,95523.28
2023-01-08T06:52:23.107Z,95522.69
2023-01-08T06:54:49.779Z,95526.47
2023-01-08T06:57:16.625Z,95522.53
2023-01-08T06:59:44.060Z,95504.13
2023-01-08T07:02:14.873Z,95529.75
2023-01-08T07:04:42.006Z,95537.13
2023-01-08T07:07:08.787Z,95523.69
2023-01-08T07:09:35.661Z,95522.63
2023-01-08T07:12:02.295Z,95533.88
2023-01-08T07:14:28.947Z,95543.91
2023-01-08T07:16:55.608Z,95540.81
2023-01-08T07:19:22.575Z,95525.31
2023-01-08T07:21:49.169Z,95547.22
2023-01-08T07:24:15.930Z,95556.84
2023-01-08T07:26:42.818Z,95555.69
2023-01-08T07:29:09.631Z,95528.47
2023-01-08T07:31:36.481Z,95547.69
2023-01-08T07:34:03.210Z,95557.31
2023-01-08T07:36:29.781Z,95556.56
2023-01-08T07:38:56.480Z,95535.84
2023-01-08T07:41:23.104Z,95525.50
2023-01-08T07:43:49.746Z,95554.28
2023-01-08T07:46:16.625Z,95520.31
2023-01-08T07:48:43.288Z,95551.47
2023-01-08T07:51:10.183Z,95530.78
2023-01-08T07:53:37.409Z,95512.78
2023-01-08T07:56:07.431Z,95548.13
2023-01-08T07:58:35.123Z,95558.06
2023-01-08T08:01:02.568Z,95543.53
2023-01-08T08:03:29.575Z,95540.88
2023-01-08T08:05:56.253Z,95555.16
2023-01-08T08:08:22.968Z,95537.56
2023-01-08T08:10:49.594Z,95554.47
2023-01-08T08:13:16.269Z,95540.25
2023-01-08T08:15:43.048Z,95544.44
2023-01-08T08:18:10.244Z,95556.69
2023-01-08T08:20:37.806Z,95561.94
2023-01-08T08:23:08.044Z,95556.81
2023-01-08T08:25:35.306Z,95542.91
2023-01-08T08:28:03.070Z,95556.69
2023-01-08T08:30:31.735Z,95565.81
2023-01-08T08:33:01.027Z,95567.00
2023-01-08T08:35:28.183Z,95576.34
2023-01-08T08:37:56.040Z,95571.47
2023-01-08T08:40:23.141Z,95562.25
2023-01-08T08:42:54.832Z,95575.69
2023-01-08T08:45:21.584Z,95549.22
2023-01-08T08:47:48.194Z,95550.34
2023-01-08T08:50:14.778Z,95557.22
2023-01-08T08:52:41.444Z,95567.44
2023-01-08T08:55:08.460Z,95556.63
2023-01-08T08:57:35.079Z,95541.28
2023-01-08T09:00:01.755Z,95533.16
2023-01-08T09:02:28.523Z,95552.25
2023-01-08T09:04:55.303Z,95541.06
2023-01-08T09:07:21.976Z,95562.41
2023-01-08T09:09:48.601Z,95526.59
2023-01-08T09:12:15.314Z,95550.16
2023-01-08T09:14:42.036Z,95555.25
2023-01-08T09:17:08.718Z,95549.66
2023-01-08T09:19:35.566Z,95552.22
2023-01-08T09:22:03.156Z,95520.56
2023-01-08T09:24:32.384Z,95532.84
2023-01-08T09:26:59.644Z,95526.94
2023-01-08T09:29:26.276Z,95522.47
2023-01-08T09:31:53.141Z,95535.94
2023-01-08T09:34:19.828Z,95525.22
2023-01-08T09:36:46.618Z,95516.13
2023-01-08T09:39:13.475Z,95524.75
2023-01-08T09:41:44.995Z,95506.53
2023-01-08T09:44:17.708Z,95524.34
2023-01-08T09:46:45.308Z,95517.38
2023-01-08T09:49:16.987Z,95509.81
2023-01-08T09:51:43.707Z,95512.50
2023-01-08T09:54:15.546Z,95485.88
2023-01-08T09:56:42.682Z,95489.97
2023-01-08T09:59:16.017Z,95479.31
2023-01-08T10:01:44.803Z,95469.47
2023-01-08T10:04:26.867Z,95463.78
2023-01-08T10:07:01.495Z,95467.88
2023-01-08T10:09:31.556Z,95452.81
2023-01-08T10:12:01.317Z,95478.31
2023-01-08T10:14:39.860Z,95456.63
2023-01-08T10:17:17.616Z,95464.50
2023-01-08T10:19:45.733Z,95443.66
2023-01-08T10:22:16.852Z,95444.75
2023-01-08T10:24:43.770Z,95442.16
2023-01-08T10:27:16.396Z,95444.88
2023-01-08T10:29:43.612Z,95443.59
2023-01-08T10:32:28.969Z,95436.50
2023-01-08T10:35:02.785Z,95431.59
2023-01-08T10:37:37.553Z,95435.66
2023-01-08T10:40:26.820Z,95421.44
2023-01-08T10:42:55.424Z,95418.13
2023-01-08T10:45:25.450Z,95423.44
2023-01-08T10:47:58.230Z,95426.84
2023-01-08T10:50:30.783Z,95413.44
2023-01-08T10:53:03.232Z,95413.38
2023-01-08T10:55:37.560Z,95406.19
2023-01-08T10:58:13.746Z,95415.31
2023-01-08T11:00:41.211Z,95387.22
2023-01-08T11:03:18.990Z,95404.06
2023-01-08T11:05:46.218Z,95387.91
2023-01-08T11:08:17.886Z,95397.59
2023-01-08T11:10:57.179Z,95384.88
2023-01-08T11:13:24.333Z,95391.19
2023-01-08T11:16:07.217Z,95387.38
2023-01-08T11:18:44.758Z,95393.22
2023-01-08T11:21:20.987Z,95376.94
2023-01-08T11:23:48.415Z,95378.31
2023-01-08T11:26:20.201Z,95383.00
2023-01-08T11:28:54.425Z,95386.06
2023-01-08T11:31:49.968Z,95378.88
2023-01-08T11:34:38.779Z,95328.63
2023-01-08T11:37:14.013Z,95367.69
2023-01-08T11:39:40.951Z,95327.06
2023-01-08T11:42:20.153Z,95352.31
2023-01-08T11:44:55.156Z,95359.63
2023-01-08T11:48:06.879Z,95359.44
2023-01-08T11:51:03.337Z,95352.47
2023-01-08T11:53:43.446Z,95347.56
2023-01-08T11:56:34.890Z,95344.19
2023-01-08T11:59:12.828Z,95335.91
2023-01-08T12:01:54.757Z,95344.22
2023-01-08T12:04:40.193Z,95334.03
2023-01-08T12:07:37.064Z,95320.66
2023-01-08T12:10:26.295Z,95324.81
2023-01-08T12:13:11.526Z,95317.78
2023-01-08T12:16:15.753Z,95316.59
2023-01-08T12:19:08.139Z,95322.13
2023-01-08T12:21:42.419Z,95279.06
2023-01-08T12:24:22.642Z,95317.09
2023-01-08T12:27:08.612Z,95306.81
2023-01-08T12:30:06.850Z,95307.16
2023-01-08T12:32:38.499Z,95281.44
2023-01-08T12:35:10.844Z,95281.41
2023-01-08T12:37:58.023Z,95305.47
2023-01-08T12:40:34.639Z,95293.53
2023-01-08T12:43:17.817Z,95300.03
2023-01-08T12:45:48.251Z,95260.34
2023-01-08T12:48:21.565Z,95282.75
2023-01-08T12:50:57.548Z,95290.47
2023-01-08T12:54:01.618Z,95286.06
2023-01-08T12:56:51.336Z,95280.56
2023-01-08T12:59:20.662Z,95292.00
2023-01-08T13:01:53.368Z,95284.41
2023-01-08T13:04:20.584Z,95283.19
2023-01-08T13:07:05.080Z,95255.94
2023-01-08T13:09:32.838Z,95282.63
2023-01-08T13:12:00.968Z,95273.69
2023-01-08T13:14:28.293Z,95264.28
2023-01-08T13:17:04.920Z,95255.94
2023-01-08T13:19:44.028Z,95260.13
2023-01-08T13:22:25.831Z,95267.06
2023-01-08T13:24:52.482Z,95266.78
2023-01-08T13:27:19.055Z,95268.88
2023-01-08T13:29:47.917Z,95257.94
2023-01-08T13:32:47.452Z,95268.53
2023-01-08T13:35:16.924Z,95260.44
2023-01-08T13:37:45.443Z,95244.66
2023-01-08T13:40:36.596Z,95266.31
2023-01-08T13:43:13.249Z,95242.38
2023-01-08T13:45:41.057Z,95251.13
2023-01-08T13:48:21.632Z,95255.53
2023-01-08T13:50:48.421Z,95265.72
2023-01-08T13:53:15.612Z,95251.94
2023-01-08T13:55:55.686Z,95271.94
2023-01-08T13:58:32.423Z,95257.06
2023-01-08T14:01:00.761Z,95259.19
2023-01-08T14:03:37.373Z,95251.34
2023-01-08T14:06:07.020Z,95264.97
2023-01-08T14:08:33.962Z,95264.38
2023-01-08T14:11:00.874Z,95262.13
2023-01-08T14:13:30.974Z,95252.91
2023-01-08T14:16:02.772Z,95259.59
2023-01-08T14:18:29.597Z,95242.31
2023-01-08T14:20:56.456Z,95255.66
2023-01-08T14:23:37.019Z,95247.75
2023-01-08T14:26:08.551Z,95256.25
2023-01-08T14:28:35.676Z,95250.19
2023-01-08T14:31:02.806Z,95256.72
2023-01-08T14:33:36.355Z,95250.81
2023-01-08T14:36:07.183Z,95240.03
2023-01-08T14:38:33.851Z,95248.69
2023-01-08T14:41:05.040Z,95244.28
2023-01-08T14:43:41.031Z,95248.09
2023-01-08T14:46:27.428Z,95231.41
2023-01-08T14:48:55.905Z,95245.88
2023-01-08T14:51:28.884Z,95218.44
2023-01-08T14:57:35.485Z,95212.31
2023-01-08T15:00:02.905Z,95162.66
2023-01-08T15:06:04.827Z,95163.41
2023-01-08T15:08:35.546Z,95226.53
2023-01-08T15:11:09.000Z,95220.56
2023-01-08T15:13:39.854Z,95227.84
2023-01-08T15:16:16.768Z,95228.97
2023-01-08T15:18:47.795Z,95229.22
2023-01-08T15:21:20.079Z,95230.75
2023-01-08T15:23:48.834Z,95230.53
2023-01-08T15:26:41.164Z,95219.31
2023-01-08T15:29:08.010Z,95235.78
2023-01-08T15:31:40.478Z,95235.78
2023-01-08T15:34:10.490Z,95234.03
2023-01-08T15:36:37.327Z,95216.72
2023-01-08T15:39:05.113Z,95231.78
2023-01-08T15:41:56.511Z,95235.78
2023-01-08T15:44:24.111Z,95218.13
2023-01-08T15:46:54.280Z,95229.94
2023-01-08T15:49:21.043Z,95224.41
2023-01-08T15:51:49.800Z,95228.84
2023-01-08T15:54:16.893Z,95228.50
2023-01-08T15:56:43.722Z,95234.00
2023-01-08T15:59:11.358Z,95225.53
2023-01-08T16:01:38.535Z,95230.28
2023-01-08T16:04:05.445Z,95227.44
2023-01-08T16:06:32.163Z,95222.09
2023-01-08T16:09:00.507Z,95226.50
2023-01-08T16:11:27.538Z,95200.66
2023-01-08T16:13:54.784Z,95208.03
2023-01-08T16:16:21.620Z,95216.06
2023-01-08T16:18:48.340Z,95224.97
2023-01-08T16:21:15.124Z,95209.25
2023-01-08T16:23:42.469Z,95192.78
2023-01-08T16:26:11.733Z,95228.56
2023-01-08T16:28:38.472Z,95206.19
2023-01-08T16:31:05.395Z,95209.09
2023-01-08T16:33:32.364Z,95199.91
2023-01-08T16:36:07.686Z,95226.69
2023-01-08T16:38:36.463Z,95222.31
2023-01-08T16:41:04.605Z,95233.63
2023-01-08T16:43:31.692Z,95229.13
2023-01-08T16:46:03.363Z,95209.84
2023-01-08T16:48:30.865Z,95215.31
2023-01-08T16:51:05.198Z,95229.19
2023-01-08T16:53:32.400Z,95218.19
2023-01-08T16:56:00.107Z,95217.56
2023-01-08T16:58:27.070Z,95218.34
2023-01-08T17:00:53.733Z,95220.09
2023-01-08T17:03:20.840Z,95241.56
2023-01-08T17:05:47.805Z,95160.19
2023-01-08T17:08:19.939Z,95220.13
2023-01-08T17:10:47.043Z,95255.84
2023-01-08T17:13:13.679Z,95241.78
2023-01-08T17:15:40.745Z,95251.59
2023-01-08T17:18:07.319Z,95248.22
2023-01-08T17:20:33.962Z,95229.66
2023-01-08T17:23:01.756Z,95236.09
2023-01-08T17:25:28.486Z,95254.44
2023-01-08T17:27:55.169Z,95251.53
2023-01-08T17:30:27.514Z,95261.53
2023-01-08T17:32:56.301Z,95265.91
2023-01-08T17:35:23.049Z,95267.56
2023-01-08T17:37:49.929Z,95239.28
2023-01-08T17:40:16.729Z,95274.56
2023-01-08T17:42:43.423Z,95274.06
2023-01-08T17:45:10.648Z,95233.13
2023-01-08T17:47:37.836Z,95243.94
2023-01-08T17:50:06.009Z,95279.06
2023-01-08T17:52:32.793Z,95282.91
2023-01-08T17:54:59.543Z,95260.44
2023-01-08T17:57:26.573Z,95265.06
2023-01-08T17:59:53.301Z,95269.34
2023-01-08T18:02:20.173Z,95271.63
2023-01-08T18:04:46.849Z,95265.47
2023-01-08T18:07:14.558Z,95242.47
2023-01-08T18:09:41.449Z,95287.69
2023-01-08T18:12:08.613Z,95277.03
2023-01-08T18:14:37.636Z,95285.38
2023-01-08T18:17:04.803Z,95250.97
2023-01-08T18:19:31.551Z,95289.97
2023-01-08T18:21:58.683Z,95292.25
2023-01-08T18:24:25.444Z,95286.91
2023-01-08T18:26:52.666Z,95282.41
2023-01-08T18:29:19.319Z,95252.28
2023-01-08T18:31:46.571Z,95301.19
2023-01-08T18:34:15.157Z,95282.50
2023-01-08T18:36:42.250Z,95287.81
2023-01-08T18:39:09.173Z,95290.94
2023-01-08T18:41:54.653Z,95293.19
2023-01-08T18:44:21.361Z,95300.44
2023-01-08T18:46:48.355Z,95305.13
2023-01-08T18:49:15.641Z,95310.53
2023-01-08T18:51:42.862Z,95296.28
2023-01-08T18:54:11.278Z,95305.13
2023-01-08T18:56:38.087Z,95312.81
2023-01-08T18:59:06.413Z,95303.88
2023-01-08T19:01:34.528Z,95309.03
2023-01-08T19:04:01.369Z,95293.59
2023-01-08T19:06:28.468Z,95313.00
2023-01-08T19:08:57.602Z,95295.22
2023-01-08T19:11:24.898Z,95318.22
2023-01-08T19:13:55.622Z,95306.59
2023-01-08T19:16:22.601Z,95325.50
2023-01-08T19:18:50.333Z,95331.72
2023-01-08T19:21:19.217Z,95340.28
2023-01-08T19:23:46.986Z,95323.09
2023-01-08T19:26:14.631Z,95336.53
2023-01-08T19:28:42.471Z,95340.03
2023-01-08T19:31:12.231Z,95330.41
2023-01-08T19:33:39.339Z,95334.16
2023-01-08T19:36:11.129Z,95318.66
2023-01-08T19:38:38.585Z,95321.66
2023-01-08T19:41:25.878Z,95332.75
2023-01-08T19:43:54.564Z,95322.06
2023-01-08T19:46:21.500Z,95318.84
2023-01-08T19:48:48.468Z,95338.41
2023-01-08T19:51:15.335Z,95344.59
2023-01-08T19:53:42.053Z,95349.28
2023-01-08T19:56:11.614Z,95337.81
2023-01-08T19:58:38.687Z,95350.47
2023-01-08T20:01:10.455Z,95340.09
2023-01-08T20:03:38.147Z,95335.88
2023-01-08T20:06:09.873Z,95342.50
2023-01-08T20:08:37.002Z,95353.97
2023-01-08T20:11:12.327Z,95338.63
2023-01-08T20:13:40.184Z,95339.84
2023-01-08T20:16:09.521Z,95344.53
2023-01-08T20:18:36.917Z,95340.06
2023-01-08T20:21:17.501Z,95341.28
2023-01-08T20:23:45.394Z,95342.09
2023-01-08T20:26:18.351Z,95344.41
2023-01-08T20:28:46.698Z,95320.56
2023-01-08T20:31:18.493Z,95338.94
2023-01-08T20:33:45.956Z,95330.16
2023-01-08T20:36:19.153Z,95329.22
2023-01-08T20:38:46.125Z,95338.00
2023-01-08T20:41:12.861Z,95352.22
2023-01-08T20:43:41.058Z,95291.41
2023-01-08T20:46:09.992Z,95349.22
2023-01-08T20:48:42.956Z,95330.44
2023-01-08T20:51:12.711Z,95337.72
2023-01-08T20:53:40.080Z,95359.22
2023-01-08T20:56:09.640Z,95343.50
2023-01-08T20:58:38.489Z,95370.25
2023-01-08T21:01:13.306Z,95361.47
2023-01-08T21:03:40.784Z,95358.00
2023-01-08T21:06:09.352Z,95360.38
2023-01-08T21:08:36.364Z,95362.28
2023-01-08T21:11:06.061Z,95358.00
2023-01-08T21:13:33.692Z,95345.72
2023-01-08T21:16:03.048Z,95360.31
2023-01-08T21:18:30.628Z,95372.56
2023-01-08T21:21:02.622Z,95346.88
2023-01-08T21:23:35.151Z,95359.16
2023-01-08T21:26:05.293Z,95360.31
2023-01-08T21:28:32.289Z,95365.31
2023-01-08T21:31:28.611Z,95361.09
2023-01-08T21:33:57.412Z,95359.53
2023-01-08T21:36:27.596Z,95351.47
2023-01-08T21:38:56.827Z,95361.81
2023-01-08T21:41:44.356Z,95366.44
2023-01-08T21:44:35.939Z,95369.09
2023-01-08T21:47:04.511Z,95365.63
2023-01-08T21:49:31.866Z,95364.09
2023-01-08T21:52:16.991Z,95347.25
2023-01-08T21:54:43.775Z,95368.31
2023-01-08T21:57:10.484Z,95354.16
2023-01-08T21:59:37.393Z,95349.22
2023-01-08T22:02:05.764Z,95352.25
2023-01-08T22:04:32.673Z,95349.19
2023-01-08T22:06:59.615Z,95353.50
2023-01-08T22:09:26.181Z,95345.00
2023-01-08T22:11:54.738Z,95356.47
2023-01-08T22:14:21.564Z,95355.72
2023-01-08T22:16:48.188Z,95322.50
2023-01-08T22:19:14.876Z,95349.22
2023-01-08T22:21:41.484Z,95349.19
2023-01-08T22:24:08.176Z,95344.66
2023-01-08T22:26:35.637Z,95346.19
2023-01-08T22:29:03.901Z,95332.84
2023-01-08T22:31:30.586Z,95319.81
2023-01-08T22:33:57.530Z,95340.50
2023-01-08T22:36:24.709Z,95343.56
2023-01-08T22:38:51.730Z,95340.91
2023-01-08T22:41:24.022Z,95335.56
2023-01-08T22:43:55.917Z,95339.44
2023-01-08T22:46:23.874Z,95332.56
2023-01-08T22:48:50.898Z,95342.91
2023-01-08T22:51:19.763Z,95344.44
2023-01-08T22:53:46.573Z,95338.31
2023-01-08T22:56:14.267Z,95328.75
2023-01-08T22:58:42.408Z,95321.06
2023-01-08T23:01:20.079Z,95330.28
2023-01-08T23:03:54.928Z,95330.66
2023-01-08T23:06:22.859Z,95328.00
2023-01-08T23:08:50.089Z,95319.56
2023-01-08T23:11:19.075Z,95295.06
2023-01-08T23:13:46.097Z,95301.97
2023-01-08T23:16:16.528Z,95312.31
2023-01-08T23:18:43.744Z,95317.66
2023-01-08T23:21:15.591Z,95323.41
2023-01-08T23:23:42.888Z,95303.13
2023-01-08T23:26:17.016Z,95295.09
2023-01-08T23:28:43.762Z,95306.97
2023-01-08T23:31:13.006Z,95282.84
2023-01-08T23:33:39.949Z,95317.28
2023-01-08T23:36:18.210Z,95289.34
2023-01-08T23:38:46.422Z,95269.44
2023-01-08T23:41:13.796Z,95300.47
2023-01-08T23:43:40.905Z,95283.63
2023-01-08T23:46:07.913Z,95316.91
2023-01-08T23:48:34.586Z,95285.53
2023-01-08T23:51:01.584Z,95299.69
2023-01-08T23:53:28.847Z,95303.91
2023-01-08T23:55:55.465Z,95305.44
2023-01-08T23:58:22.337Z,95293.97
